x

Cape Lookout, Nc (clkn7) Weather Station

5:00am - Wed 26th Jul 2017 All times are EDT. -4 hours from GMT.

  • Wind
    18mph, 20mph gusts
  • Air Temp 79°f
  • Sea Pressure 1018.7mb
  • Cape Lookout, Nc
  • Cape Lookout, Nc

More Historic Weather Station data

Upgrade to MSW Pro to gain access to the past 30 days of data for over 8000 Wavebouys and Weather Stations around the globe.

Join Pro

Comparision Forecast

View Surf forecast
   
Wed 07/26 5:00am 18 20 mph 1018.7mb 79f
4:00am 22 24 mph 1019.2mb 79f
3:00am 23 25 mph 1018.8mb 79f
2:00am 21 23 mph 1019.2mb 79f
1:00am 22 24 mph 1019.4mb 79f
12:00am 20 23 mph 1019.3mb 78f
Tue 07/25 11:00pm 20 22 mph 1019.2mb 78f
10:00pm 16 18 mph 1018.9mb 79f
9:00pm 16 18 mph 1018.4mb 79f
8:00pm  -  2 mph 1017.8mb 82f
7:00pm 2 3 mph 1017.2mb 82f
6:00pm 7 8 mph 1017mb 83f
5:00pm 7 10 mph 1017mb 84f
4:00pm 9 11 mph 1017.1mb 84f
3:00pm 14 16 mph 1017.1mb 84f
2:00pm 10 13 mph 1017.1mb 83f
1:00pm 9 13 mph 1017.3mb 83f
12:00pm 10 13 mph 1017.3mb 82f
11:00am 11 14 mph 1017.4mb 82f
10:00am 11 14 mph 1016.9mb 82f
9:00am 13 14 mph 1016.9mb 80f
8:00am 11 14 mph 1016.7mb 80f
7:00am 9 10 mph 1016mb 79f
6:00am 13 15 mph 1016mb 79f
5:00am 13 15 mph 1015.6mb 79f
4:00am 11 15 mph 1015.3mb 80f
3:00am 11 14 mph 1015.2mb 80f
2:00am 11 15 mph 1015.4mb 80f
1:00am 11 17 mph 1015.3mb 81f
12:00am 13 16 mph 1014.7mb 80f
Mon 07/24 11:00pm 11 15 mph 1014.8mb 81f
10:00pm 13 16 mph 1014.4mb 81f
9:00pm 14 23 mph 1014.5mb 81f
8:00pm 13 17 mph 1013.7mb 81f
7:00pm 8 11 mph 1012.7mb 82f
6:00pm 10 14 mph 1012.6mb 83f
5:00pm 11 15 mph 1012.7mb 82f
4:00pm 13 17 mph 1012.8mb 84f
3:00pm 14 18 mph 1013.1mb 83f
2:00pm 16 22 mph 1013.2mb 84f
1:00pm 16 21 mph 1013.6mb 83f
12:00pm 13 18 mph 1013.7mb 84f
11:00am 13 16 mph 1013.4mb 83f
10:00am 11 16 mph 1013.5mb 82f
9:00am 13 15 mph 1013.4mb 82f
8:00am 13 17 mph 1013.1mb 80f
7:00am 10 14 mph 1013mb 80f
6:00am 15 22 mph 1012.4mb 77f
5:00am 17 22 mph 1012.1mb 81f
4:00am 17 24 mph 1011.3mb 81f
3:00am 16 21 mph 1011.4mb 81f
2:00am 13 15 mph 1011.8mb 81f
1:00am 10 14 mph 1012.5mb 81f
12:00am 13 15 mph 1013.1mb 81f
Sun 07/23 11:00pm 11 15 mph 1013.6mb 81f
10:00pm 14 18 mph 1013.1mb 82f
9:00pm 20 26 mph 1012.7mb 82f
8:00pm 16 22 mph 1011.4mb 82f
7:00pm 14 21 mph 1010.8mb 83f
6:00pm 13 18 mph 1011mb 84f
5:00pm 18 26 mph 1011.5mb 84f
4:00pm 17 22 mph 1011.5mb 84f
3:00pm 17 24 mph 1011.9mb 84f
2:00pm 20 24 mph 1012.3mb 84f
1:00pm 13 16 mph 1012.6mb 85f
12:00pm 14 17 mph 1012.7mb 85f
11:00am 18 23 mph 1012.7mb 83f
10:00am 16 22 mph 1012.7mb 83f
9:00am 14 21 mph 1013.1mb 83f
8:00am 16 20 mph 1012.9mb 82f
7:00am 13 18 mph 1012.7mb 81f
6:00am 14 21 mph 1012.7mb 81f
5:00am 14 20 mph 1012.3mb 81f
4:00am 14 17 mph 1012.1mb 81f
3:00am 16 25 mph 1012.1mb 81f
2:00am 14 20 mph 1012.5mb 81f
1:00am 15 18 mph 1013.1mb 81f
12:00am 15 20 mph 1013.1mb 81f
Sat 07/22 11:00pm 13 21 mph 1013.9mb 81f
10:00pm 14 20 mph 1014mb 82f
9:00pm 15 18 mph 1013.7mb 82f
8:00pm 11 15 mph 1013.4mb 82f
7:00pm 13 16 mph 1012.8mb 83f
6:00pm 13 20 mph 1012.9mb 83f
5:00pm 14 18 mph 1013.2mb 84f
4:00pm 15 21 mph 1013.7mb 84f
3:00pm 16 21 mph 1014.4mb 84f
2:00pm 14 21 mph 1015.2mb 84f
1:00pm 17 22 mph 1015.7mb 84f
12:00pm 15 20 mph 1016.3mb 85f
11:00am 11 15 mph 1016.6mb 83f